Time;durP1;ratioP1;P1;durP2;ratioP2;P2;SDS_P1;SDS_P2;PMS_P1;PMS_P2;Temp;Humidity;BMP_temperature;BMP_pressure;BME280_temperature;BME280_humidity;BME280_pressure;Samples;Min_cycle;Max_cycle;Signal;HPM_P1;HPM_P2
2022/09/02 00:02:03;;;;;;;8.10;5.50;;;;;;;;;;5014012;28;20171;-72
2022/09/02 00:04:29;;;;;;;8.53;5.50;;;;;;;;;;5014157;28;20157;-72
2022/09/02 00:06:54;;;;;;;5.70;5.10;;;;;;;;;;5013063;28;20173;-72
2022/09/02 00:09:22;;;;;;;5.17;4.70;;;;;;;;;;5014703;28;20177;-72
2022/09/02 00:11:49;;;;;;;5.13;4.73;;;;;;;;;;5027312;28;20207;-72
2022/09/02 00:14:17;;;;;;;5.80;5.30;;;;;;;;;;5015993;28;20180;-72
2022/09/02 00:16:49;;;;;;;4.93;4.43;;;;;;;;;;5015515;28;20179;-72
2022/09/02 00:19:15;;;;;;;5.00;4.60;;;;;;;;;;5033348;28;20182;-72
2022/09/02 00:21:40;;;;;;;4.73;4.33;;;;;;;;;;5015860;28;20532;-72
2022/09/02 00:24:06;;;;;;;5.30;4.80;;;;;;;;;;5033666;28;20172;-72
2022/09/02 00:26:31;;;;;;;5.00;4.40;;;;;;;;;;5004628;28;20176;-72
2022/09/02 00:28:56;;;;;;;4.57;4.17;;;;;;;;;;5041542;28;20169;-72
2022/09/02 00:31:23;;;;;;;4.90;4.57;;;;;;;;;;5015372;28;20187;-72
2022/09/02 00:33:50;;;;;;;4.70;4.30;;;;;;;;;;5015253;28;20201;-72
2022/09/02 00:36:15;;;;;;;5.17;4.33;;;;;;;;;;5041700;28;20181;-72
2022/09/02 00:38:40;;;;;;;5.00;4.60;;;;;;;;;;5033249;28;20183;-72
2022/09/02 00:41:07;;;;;;;4.60;4.20;;;;;;;;;;5015319;28;20203;-72
2022/09/02 00:43:44;;;;;;;4.37;3.97;;;;;;;;;;5012959;28;20185;-72
2022/09/02 00:46:10;;;;;;;5.30;4.77;;;;;;;;;;5028432;28;20231;-72
2022/09/02 00:48:39;;;;;;;4.50;4.10;;;;;;;;;;5013316;28;20259;-72
2022/09/02 00:51:04;;;;;;;5.00;4.60;;;;;;;;;;5012585;28;20184;-72
2022/09/02 00:53:29;;;;;;;4.27;3.90;;;;;;;;;;5012311;28;20172;-72
2022/09/02 00:55:55;;;;;;;4.50;4.10;;;;;;;;;;5012315;28;20272;-72
2022/09/02 00:58:23;;;;;;;4.53;4.13;;;;;;;;;;5012883;28;20169;-72
2022/09/02 01:00:51;;;;;;;4.73;4.43;;;;;;;;;;5005615;28;20238;-72
2022/09/02 01:03:18;;;;;;;4.00;3.70;;;;;;;;;;5012997;28;20169;-72
2022/09/02 01:05:45;;;;;;;4.83;4.43;;;;;;;;;;5012982;28;20180;-72
2022/09/02 01:08:12;;;;;;;5.40;5.00;;;;;;;;;;5012163;28;20191;-72
2022/09/02 01:10:38;;;;;;;5.30;4.50;;;;;;;;;;5013071;28;20187;-72
2022/09/02 01:13:05;;;;;;;4.27;3.97;;;;;;;;;;5011446;28;20177;-72
2022/09/02 01:15:31;;;;;;;6.50;4.07;;;;;;;;;;5012891;28;20173;-72
2022/09/02 01:17:57;;;;;;;4.37;3.90;;;;;;;;;;5011807;28;20187;-72
2022/09/02 01:20:23;;;;;;;4.53;4.03;;;;;;;;;;5012796;28;20204;-72
2022/09/02 01:22:49;;;;;;;4.93;4.53;;;;;;;;;;5012444;28;20183;-72
2022/09/02 01:25:16;;;;;;;4.47;4.10;;;;;;;;;;5012589;28;20165;-72
2022/09/02 01:27:42;;;;;;;4.43;4.07;;;;;;;;;;5011364;28;20172;-72
2022/09/02 01:30:09;;;;;;;6.90;4.57;;;;;;;;;;5028289;28;20224;-72
2022/09/02 01:32:34;;;;;;;4.13;3.83;;;;;;;;;;5029813;28;20179;-72
2022/09/02 01:35:00;;;;;;;4.67;4.27;;;;;;;;;;5018315;28;20209;-72
2022/09/02 01:37:25;;;;;;;4.57;4.20;;;;;;;;;;5030087;28;20204;-72
2022/09/02 01:39:51;;;;;;;4.70;4.03;;;;;;;;;;5032142;28;20202;-72
2022/09/02 01:42:17;;;;;;;4.60;4.20;;;;;;;;;;5012917;28;20174;-72
2022/09/02 01:44:45;;;;;;;5.20;4.80;;;;;;;;;;5012124;28;20218;-72
2022/09/02 01:47:15;;;;;;;4.30;4.00;;;;;;;;;;4991401;28;20202;-72
2022/09/02 01:49:41;;;;;;;6.20;4.40;;;;;;;;;;4992428;28;20428;-72
2022/09/02 01:52:07;;;;;;;4.50;4.10;;;;;;;;;;4990193;28;20173;-72
2022/09/02 01:54:32;;;;;;;4.87;4.47;;;;;;;;;;4992337;28;20199;-72
2022/09/02 01:56:57;;;;;;;5.37;4.00;;;;;;;;;;4992459;28;20244;-72
2022/09/02 01:59:23;;;;;;;4.33;4.03;;;;;;;;;;4991197;28;20223;-72
2022/09/02 02:01:48;;;;;;;7.57;4.37;;;;;;;;;;4991073;28;20214;-72
2022/09/02 02:04:13;;;;;;;4.20;3.90;;;;;;;;;;4991101;28;20215;-72
2022/09/02 02:06:41;;;;;;;4.93;4.10;;;;;;;;;;4990904;28;20212;-72
2022/09/02 02:09:07;;;;;;;4.20;3.90;;;;;;;;;;4973629;28;20181;-72
2022/09/02 02:11:32;;;;;;;4.93;4.17;;;;;;;;;;4971353;28;20479;-72
2022/09/02 02:13:59;;;;;;;4.30;3.90;;;;;;;;;;4987785;28;20181;-72
2022/09/02 02:16:25;;;;;;;5.00;4.47;;;;;;;;;;4971685;28;20248;-72
2022/09/02 02:18:50;;;;;;;5.57;3.83;;;;;;;;;;4973177;28;20389;-72
2022/09/02 02:21:15;;;;;;;4.73;4.00;;;;;;;;;;4991827;28;20244;-72
2022/09/02 02:23:40;;;;;;;5.10;4.33;;;;;;;;;;4991881;28;20180;-72
2022/09/02 02:26:07;;;;;;;5.43;3.90;;;;;;;;;;4977707;28;20199;-72
2022/09/02 02:28:32;;;;;;;4.63;3.70;;;;;;;;;;5002325;28;20183;-72
2022/09/02 02:30:58;;;;;;;4.27;3.93;;;;;;;;;;5010129;28;20229;-72
2022/09/02 02:33:23;;;;;;;3.70;3.40;;;;;;;;;;5003645;28;20242;-72
2022/09/02 02:35:49;;;;;;;4.33;4.03;;;;;;;;;;5003103;28;20175;-72
2022/09/02 02:38:14;;;;;;;4.00;3.70;;;;;;;;;;5010474;28;20188;-72
2022/09/02 02:40:39;;;;;;;4.33;4.00;;;;;;;;;;4983328;28;20199;-72
2022/09/02 02:43:05;;;;;;;4.37;4.00;;;;;;;;;;4988970;28;20175;-73
2022/09/02 02:45:30;;;;;;;4.43;3.90;;;;;;;;;;5003230;28;20272;-72
2022/09/02 02:47:57;;;;;;;4.27;3.87;;;;;;;;;;5031048;28;20170;-72
2022/09/02 02:50:23;;;;;;;4.23;3.93;;;;;;;;;;5013300;28;20174;-72
2022/09/02 02:52:48;;;;;;;4.03;3.67;;;;;;;;;;5013021;28;20225;-72
2022/09/02 02:55:13;;;;;;;4.70;3.90;;;;;;;;;;5013198;28;20221;-72
2022/09/02 02:57:39;;;;;;;4.50;4.20;;;;;;;;;;5012764;28;20197;-72
2022/09/02 03:00:25;;;;;;;5.03;4.60;;;;;;;;;;5011893;28;20206;-73
2022/09/02 03:02:54;;;;;;;4.43;4.03;;;;;;;;;;5010346;28;20328;-72
2022/09/02 03:05:19;;;;;;;4.23;3.93;;;;;;;;;;4993518;28;20216;-72
2022/09/02 03:07:44;;;;;;;7.93;4.80;;;;;;;;;;5009364;28;20270;-72
2022/09/02 03:10:10;;;;;;;6.53;4.43;;;;;;;;;;4993488;28;20178;-72
2022/09/02 03:12:37;;;;;;;4.80;4.40;;;;;;;;;;4993437;28;20178;-72
2022/09/02 03:15:03;;;;;;;5.37;4.30;;;;;;;;;;5012313;28;20182;-72
2022/09/02 03:17:28;;;;;;;4.33;4.00;;;;;;;;;;5030650;28;20178;-72
2022/09/02 03:19:57;;;;;;;5.10;4.70;;;;;;;;;;5012992;28;20261;-72
2022/09/02 03:22:22;;;;;;;5.07;3.80;;;;;;;;;;5029798;28;20210;-72
2022/09/02 03:24:48;;;;;;;4.30;4.00;;;;;;;;;;5030301;28;20224;-72
2022/09/02 03:27:13;;;;;;;4.87;3.53;;;;;;;;;;5038094;28;20178;-72
2022/09/02 03:29:38;;;;;;;4.03;3.73;;;;;;;;;;5012625;28;20170;-72
2022/09/02 03:32:03;;;;;;;4.10;3.80;;;;;;;;;;5032825;28;20197;-72
2022/09/02 03:34:30;;;;;;;4.30;3.90;;;;;;;;;;5042498;28;20247;-72
2022/09/02 03:36:55;;;;;;;4.30;3.90;;;;;;;;;;5031057;28;20173;-72
2022/09/02 03:39:20;;;;;;;3.60;3.40;;;;;;;;;;5054159;28;20185;-72
2022/09/02 03:41:48;;;;;;;4.67;3.97;;;;;;;;;;5022025;28;20217;-72
2022/09/02 03:44:13;;;;;;;3.60;3.30;;;;;;;;;;5016681;28;20239;-72
2022/09/02 03:46:39;;;;;;;4.43;4.03;;;;;;;;;;5016523;28;20316;-72
2022/09/02 03:49:04;;;;;;;4.03;3.73;;;;;;;;;;5015795;28;20186;-72
2022/09/02 03:51:30;;;;;;;4.83;4.30;;;;;;;;;;5033773;28;20182;-72
2022/09/02 03:53:55;;;;;;;4.23;3.93;;;;;;;;;;5016416;28;20193;-72
2022/09/02 03:56:20;;;;;;;6.73;4.17;;;;;;;;;;5016337;28;20181;-72
2022/09/02 03:58:48;;;;;;;4.60;4.17;;;;;;;;;;5016128;28;20186;-72
2022/09/02 04:01:21;;;;;;;4.30;3.90;;;;;;;;;;5033919;28;20203;-72
2022/09/02 04:03:46;;;;;;;4.40;4.10;;;;;;;;;;5031492;28;20347;-72
2022/09/02 04:06:13;;;;;;;4.50;4.10;;;;;;;;;;5012417;28;20190;-72
2022/09/02 04:08:39;;;;;;;4.30;4.00;;;;;;;;;;5014003;28;20170;-73
2022/09/02 04:11:05;;;;;;;4.30;4.00;;;;;;;;;;5013989;28;20221;-72
2022/09/02 04:13:30;;;;;;;4.37;3.97;;;;;;;;;;4996408;28;20269;-72
2022/09/02 04:15:57;;;;;;;3.90;3.60;;;;;;;;;;4996460;28;20258;-72
2022/09/02 04:18:22;;;;;;;4.90;4.00;;;;;;;;;;5013374;28;20496;-72
2022/09/02 04:20:48;;;;;;;4.07;3.77;;;;;;;;;;5014030;28;20206;-72
2022/09/02 04:23:13;;;;;;;4.27;3.87;;;;;;;;;;5015146;28;20186;-72
2022/09/02 04:25:40;;;;;;;5.00;4.20;;;;;;;;;;5015972;28;20172;-72
2022/09/02 04:28:06;;;;;;;4.80;4.00;;;;;;;;;;5023833;28;20186;-72
2022/09/02 04:30:31;;;;;;;4.03;3.63;;;;;;;;;;5053382;28;20173;-72
2022/09/02 04:32:56;;;;;;;4.23;3.33;;;;;;;;;;5030051;28;20314;-72
2022/09/02 04:35:21;;;;;;;4.37;3.47;;;;;;;;;;5021303;28;20205;-72
2022/09/02 04:37:47;;;;;;;4.07;3.67;;;;;;;;;;5035621;28;20234;-72
2022/09/02 04:40:13;;;;;;;3.10;2.90;;;;;;;;;;5027233;28;20543;-72
2022/09/02 04:42:38;;;;;;;3.67;3.37;;;;;;;;;;5014125;28;20177;-72
2022/09/02 04:45:04;;;;;;;3.37;3.07;;;;;;;;;;5014877;28;20245;-72
2022/09/02 04:47:29;;;;;;;3.33;3.13;;;;;;;;;;5032950;28;20224;-72
2022/09/02 04:49:55;;;;;;;3.97;3.60;;;;;;;;;;5031949;28;20200;-72
2022/09/02 04:52:20;;;;;;;5.10;3.87;;;;;;;;;;5015378;28;20172;-72
2022/09/02 04:54:46;;;;;;;3.43;3.10;;;;;;;;;;5033153;28;20164;-72
2022/09/02 04:57:11;;;;;;;3.43;3.10;;;;;;;;;;5014758;28;20188;-72
2022/09/02 04:59:36;;;;;;;4.20;3.30;;;;;;;;;;5032957;28;20173;-72
2022/09/02 05:02:03;;;;;;;2.93;2.73;;;;;;;;;;5015038;28;20206;-72
2022/09/02 05:04:29;;;;;;;3.93;2.83;;;;;;;;;;5032701;28;20213;-72
2022/09/02 05:06:56;;;;;;;3.80;3.50;;;;;;;;;;5015101;28;20200;-72
2022/09/02 05:09:22;;;;;;;3.40;3.10;;;;;;;;;;5015374;28;20172;-72
2022/09/02 05:11:47;;;;;;;3.30;3.00;;;;;;;;;;5032374;28;20181;-72
2022/09/02 05:14:14;;;;;;;4.40;4.00;;;;;;;;;;5030099;28;20239;-72
2022/09/02 05:16:40;;;;;;;2.77;2.57;;;;;;;;;;5014625;28;20221;-72
2022/09/02 05:19:06;;;;;;;3.70;3.10;;;;;;;;;;5014412;28;20267;-72
2022/09/02 05:21:31;;;;;;;3.13;2.93;;;;;;;;;;5014968;28;20192;-72
2022/09/02 05:23:57;;;;;;;5.40;3.10;;;;;;;;;;5014802;28;20181;-72
2022/09/02 05:26:23;;;;;;;3.40;2.97;;;;;;;;;;5016598;28;20184;-72
2022/09/02 05:28:48;;;;;;;3.00;2.80;;;;;;;;;;5020455;28;20185;-72
2022/09/02 05:31:16;;;;;;;4.00;3.70;;;;;;;;;;5012499;28;20238;-72
2022/09/02 05:33:41;;;;;;;5.47;3.40;;;;;;;;;;5019002;28;20204;-72
2022/09/02 05:36:08;;;;;;;3.90;3.60;;;;;;;;;;5025933;28;20238;-72
2022/09/02 05:38:33;;;;;;;6.60;3.40;;;;;;;;;;5031740;28;20384;-72
2022/09/02 05:41:06;;;;;;;3.40;3.20;;;;;;;;;;5031782;28;20200;-72
2022/09/02 05:43:34;;;;;;;3.47;3.17;;;;;;;;;;5031889;28;20198;-72
2022/09/02 05:46:02;;;;;;;3.67;3.27;;;;;;;;;;5010761;28;20325;-72
2022/09/02 05:51:11;;;;;;;4.17;3.77;;;;;;;;;;4992641;28;20232;-72
2022/09/02 05:53:36;;;;;;;6.00;3.60;;;;;;;;;;4992154;28;20170;-72
2022/09/02 05:56:04;;;;;;;4.03;3.73;;;;;;;;;;4991215;28;20179;-72
2022/09/02 05:58:30;;;;;;;4.20;3.10;;;;;;;;;;4990911;28;20177;-72
2022/09/02 06:00:55;;;;;;;3.03;2.83;;;;;;;;;;4991392;28;20207;-72
2022/09/02 06:03:21;;;;;;;3.93;3.63;;;;;;;;;;5003318;28;20590;-72
2022/09/02 06:05:56;;;;;;;3.50;3.20;;;;;;;;;;5003123;28;20195;-72
2022/09/02 06:08:21;;;;;;;3.57;2.97;;;;;;;;;;4992373;28;20246;-73
2022/09/02 06:10:46;;;;;;;4.43;3.03;;;;;;;;;;4991144;28;20236;-72
2022/09/02 06:13:11;;;;;;;3.80;3.13;;;;;;;;;;4996935;28;20274;-72
2022/09/02 06:15:42;;;;;;;4.07;2.93;;;;;;;;;;5010568;28;20182;-72
2022/09/02 06:18:08;;;;;;;2.90;2.70;;;;;;;;;;5011687;28;20250;-72
2022/09/02 06:20:33;;;;;;;6.67;6.17;;;;;;;;;;5011524;28;20289;-72
2022/09/02 06:22:58;;;;;;;5.30;4.50;;;;;;;;;;5010792;28;20178;-72
2022/09/02 06:25:23;;;;;;;3.57;3.07;;;;;;;;;;5010422;28;20180;-72
2022/09/02 06:27:49;;;;;;;6.13;3.43;;;;;;;;;;5015801;28;20173;-72
2022/09/02 06:30:14;;;;;;;4.07;3.10;;;;;;;;;;5009892;28;20181;-72
2022/09/02 06:32:39;;;;;;;4.03;3.27;;;;;;;;;;5010550;28;20235;-72
2022/09/02 06:35:06;;;;;;;3.43;3.13;;;;;;;;;;5017942;28;20237;-72
2022/09/02 06:37:32;;;;;;;4.03;2.80;;;;;;;;;;4990457;28;20192;-72
2022/09/02 06:39:57;;;;;;;3.73;2.90;;;;;;;;;;4991122;28;20183;-72
2022/09/02 06:42:22;;;;;;;3.77;3.03;;;;;;;;;;5009178;28;20319;-72
2022/09/02 06:44:48;;;;;;;3.37;2.60;;;;;;;;;;5010097;28;20257;-72
2022/09/02 06:47:13;;;;;;;2.90;2.70;;;;;;;;;;5009805;28;20239;-72
2022/09/02 06:49:38;;;;;;;2.87;2.60;;;;;;;;;;5009530;28;20229;-72
2022/09/02 06:52:04;;;;;;;4.33;3.00;;;;;;;;;;5011270;28;20171;-72
2022/09/02 06:54:29;;;;;;;3.17;2.90;;;;;;;;;;5009813;28;20182;-72
2022/09/02 06:56:55;;;;;;;3.47;3.00;;;;;;;;;;5000569;28;20183;-72
2022/09/02 06:59:23;;;;;;;3.73;3.10;;;;;;;;;;4991182;28;20172;-72
2022/09/02 07:01:49;;;;;;;3.40;3.10;;;;;;;;;;4990306;28;20214;-72
2022/09/02 07:06:59;;;;;;;3.20;2.60;;;;;;;;;;4991034;28;20191;-73
2022/09/02 07:09:29;;;;;;;3.23;2.50;;;;;;;;;;4991281;28;20171;-73
2022/09/02 07:11:55;;;;;;;2.90;2.70;;;;;;;;;;4990120;28;20185;-74
2022/09/02 07:14:21;;;;;;;3.17;2.87;;;;;;;;;;5002204;28;20183;-74
2022/09/02 07:16:48;;;;;;;6.50;3.10;;;;;;;;;;5010668;28;20391;-74
2022/09/02 07:19:13;;;;;;;3.43;2.70;;;;;;;;;;5009653;28;20189;-73
2022/09/02 07:21:40;;;;;;;2.83;2.63;;;;;;;;;;5009697;28;20194;-73
2022/09/02 07:24:06;;;;;;;3.10;2.83;;;;;;;;;;5009688;28;20233;-75
2022/09/02 07:26:31;;;;;;;3.10;2.83;;;;;;;;;;5013947;28;20181;-75
2022/09/02 07:28:57;;;;;;;3.03;2.83;;;;;;;;;;5022151;28;20167;-75
2022/09/02 07:31:22;;;;;;;5.60;2.67;;;;;;;;;;5004029;28;20184;-75
2022/09/02 07:33:47;;;;;;;2.73;2.53;;;;;;;;;;5007340;28;20259;-75
2022/09/02 07:36:13;;;;;;;2.80;2.60;;;;;;;;;;5028436;28;20230;-75
2022/09/02 07:38:39;;;;;;;3.03;2.60;;;;;;;;;;5009366;28;20214;-75
2022/09/02 07:41:05;;;;;;;3.93;2.73;;;;;;;;;;4997718;28;20282;-75
2022/09/02 07:43:31;;;;;;;3.23;2.80;;;;;;;;;;5010266;28;20180;-75
2022/09/02 07:45:56;;;;;;;3.30;2.80;;;;;;;;;;5019029;28;20229;-75
2022/09/02 07:48:22;;;;;;;4.03;2.90;;;;;;;;;;5017332;28;20186;-75
2022/09/02 07:50:48;;;;;;;2.57;2.37;;;;;;;;;;5023143;28;20180;-75
2022/09/02 07:53:14;;;;;;;3.00;2.80;;;;;;;;;;5030045;28;20178;-75
2022/09/02 07:55:40;;;;;;;3.93;2.90;;;;;;;;;;5012833;28;20207;-75
2022/09/02 07:58:05;;;;;;;3.63;3.00;;;;;;;;;;5030362;28;20200;-75
2022/09/02 08:00:30;;;;;;;3.03;2.67;;;;;;;;;;5012307;28;20210;-75
2022/09/02 08:02:56;;;;;;;3.97;2.70;;;;;;;;;;5012572;28;20179;-75
2022/09/02 08:05:21;;;;;;;2.80;2.60;;;;;;;;;;4999926;28;20237;-75
2022/09/02 08:07:46;;;;;;;2.77;2.57;;;;;;;;;;4992813;28;20269;-75
2022/09/02 08:10:12;;;;;;;2.97;2.70;;;;;;;;;;5010858;28;20180;-75
2022/09/02 08:12:38;;;;;;;3.00;2.43;;;;;;;;;;5010154;28;20263;-75
2022/09/02 08:15:04;;;;;;;3.10;2.70;;;;;;;;;;5010137;28;20396;-75
2022/09/02 08:17:29;;;;;;;3.33;2.77;;;;;;;;;;4995022;28;20186;-75
2022/09/02 08:19:55;;;;;;;2.80;2.50;;;;;;;;;;5006984;28;20202;-75
2022/09/02 08:22:20;;;;;;;2.90;2.70;;;;;;;;;;5031615;28;20179;-75
2022/09/02 08:24:46;;;;;;;2.47;2.27;;;;;;;;;;5033678;28;20250;-75
2022/09/02 08:27:11;;;;;;;2.33;2.13;;;;;;;;;;5042297;28;20264;-75
2022/09/02 08:29:36;;;;;;;2.67;2.47;;;;;;;;;;5022725;28;20193;-75
2022/09/02 08:32:02;;;;;;;3.03;2.40;;;;;;;;;;5033469;28;20174;-75
2022/09/02 08:34:27;;;;;;;4.93;2.50;;;;;;;;;;5041378;28;20194;-75
2022/09/02 08:36:53;;;;;;;2.70;2.50;;;;;;;;;;5047786;28;20180;-75
2022/09/02 08:39:18;;;;;;;3.10;2.30;;;;;;;;;;5038119;28;20237;-75
2022/09/02 08:42:07;;;;;;;2.30;2.10;;;;;;;;;;5015447;28;20210;-75
2022/09/02 08:44:35;;;;;;;2.00;1.90;;;;;;;;;;5013302;28;20174;-75
2022/09/02 08:47:01;;;;;;;2.33;2.10;;;;;;;;;;5013205;28;20223;-75
2022/09/02 08:49:39;;;;;;;4.07;2.33;;;;;;;;;;4995857;28;20256;-75
2022/09/02 08:52:04;;;;;;;2.30;2.10;;;;;;;;;;5013236;28;20239;-75
2022/09/02 08:54:40;;;;;;;2.43;2.10;;;;;;;;;;4995901;28;20171;-75
2022/09/02 08:57:06;;;;;;;2.13;1.97;;;;;;;;;;5015235;28;20197;-75
2022/09/02 08:59:32;;;;;;;9.80;2.47;;;;;;;;;;5033174;28;20225;-75
2022/09/02 09:02:15;;;;;;;4.73;2.50;;;;;;;;;;5032774;28;20195;-75
2022/09/02 09:04:59;;;;;;;3.73;2.37;;;;;;;;;;5032851;28;20166;-74
2022/09/02 09:07:30;;;;;;;2.20;2.00;;;;;;;;;;5032344;28;20169;-75
2022/09/02 09:10:08;;;;;;;2.67;2.30;;;;;;;;;;5015179;28;20171;-75
2022/09/02 09:12:39;;;;;;;2.17;2.00;;;;;;;;;;5031680;28;20171;-75
2022/09/02 09:15:16;;;;;;;3.10;2.10;;;;;;;;;;5032355;28;20218;-75
2022/09/02 09:17:43;;;;;;;1.80;1.70;;;;;;;;;;4994740;28;20184;-75
2022/09/02 09:20:24;;;;;;;2.00;1.90;;;;;;;;;;5025211;28;20218;-75
2022/09/02 09:22:50;;;;;;;1.80;1.70;;;;;;;;;;5014485;28;20186;-75
2022/09/02 09:25:16;;;;;;;6.20;2.20;;;;;;;;;;5021692;28;20184;-75
2022/09/02 09:27:44;;;;;;;3.00;2.60;;;;;;;;;;5040318;28;20188;-75
2022/09/02 09:30:12;;;;;;;2.53;1.93;;;;;;;;;;5021258;28;20181;-75
2022/09/02 09:32:40;;;;;;;2.37;2.17;;;;;;;;;;4997134;28;20256;-75
2022/09/02 09:35:07;;;;;;;2.07;1.97;;;;;;;;;;5022414;28;20189;-75
2022/09/02 09:37:44;;;;;;;2.10;1.90;;;;;;;;;;5032301;28;20177;-75
2022/09/02 09:40:30;;;;;;;2.37;2.00;;;;;;;;;;5031991;28;20192;-75
2022/09/02 09:42:57;;;;;;;2.60;2.27;;;;;;;;;;5031334;28;20202;-75
2022/09/02 09:45:35;;;;;;;2.00;1.83;;;;;;;;;;5011101;28;20225;-75
2022/09/02 09:48:06;;;;;;;4.73;1.97;;;;;;;;;;4993093;28;20186;-75
2022/09/02 09:50:32;;;;;;;2.50;2.20;;;;;;;;;;5006272;28;20185;-75
2022/09/02 09:53:32;;;;;;;2.30;2.10;;;;;;;;;;5011860;28;20178;-75
2022/09/02 09:56:05;;;;;;;2.70;2.30;;;;;;;;;;4971027;28;20275;-75
2022/09/02 09:58:33;;;;;;;2.67;2.20;;;;;;;;;;4954434;28;20203;-75
2022/09/02 10:01:09;;;;;;;3.00;2.17;;;;;;;;;;4954659;28;20340;-75
2022/09/02 10:03:34;;;;;;;2.47;2.00;;;;;;;;;;4963892;28;20196;-75
2022/09/02 10:06:16;;;;;;;2.30;2.10;;;;;;;;;;4951465;29;20183;-75
2022/09/02 10:08:52;;;;;;;2.23;1.90;;;;;;;;;;4951503;29;20164;-75
2022/09/02 10:11:38;;;;;;;2.87;2.13;;;;;;;;;;4935127;29;20283;-75
2022/09/02 10:14:04;;;;;;;3.53;2.23;;;;;;;;;;4950630;29;20470;-75
2022/09/02 10:16:36;;;;;;;2.20;2.10;;;;;;;;;;4950911;29;20273;-75
2022/09/02 10:19:05;;;;;;;2.10;1.90;;;;;;;;;;4954123;28;20237;-75
2022/09/02 10:21:35;;;;;;;3.07;1.83;;;;;;;;;;4956687;28;20219;-75
2022/09/02 10:24:07;;;;;;;3.30;1.90;;;;;;;;;;4951034;29;20256;-75
2022/09/02 10:26:42;;;;;;;2.73;2.40;;;;;;;;;;4959966;28;20443;-75
2022/09/02 10:29:07;;;;;;;3.47;2.10;;;;;;;;;;4976462;28;20182;-75
2022/09/02 10:31:55;;;;;;;5.10;2.63;;;;;;;;;;5087666;27;20597;-73
2022/09/02 10:34:48;;;;;;;10.43;3.00;;;;;;;;;;5076543;28;20263;-73
2022/09/02 10:37:13;;;;;;;2.27;2.00;;;;;;;;;;5064147;28;20182;-73
2022/09/02 10:39:42;;;;;;;2.43;2.23;;;;;;;;;;5076238;28;20210;-73
2022/09/02 10:42:15;;;;;;;3.57;2.30;;;;;;;;;;5066246;28;20274;-73
2022/09/02 10:44:44;;;;;;;2.90;2.70;;;;;;;;;;5067573;28;20169;-75
2022/09/02 10:47:14;;;;;;;3.83;2.43;;;;;;;;;;5067309;28;20173;-75
2022/09/02 10:49:49;;;;;;;3.07;2.00;;;;;;;;;;5066427;28;20211;-75
2022/09/02 10:52:23;;;;;;;2.53;2.10;;;;;;;;;;5066524;28;20173;-75
2022/09/02 10:54:48;;;;;;;3.77;2.40;;;;;;;;;;5062995;28;20193;-75
2022/09/02 10:57:25;;;;;;;3.60;2.80;;;;;;;;;;5047615;28;20172;-73
2022/09/02 10:59:53;;;;;;;4.73;2.60;;;;;;;;;;5062635;28;20209;-73
2022/09/02 11:02:18;;;;;;;2.33;2.13;;;;;;;;;;5047443;28;20210;-73
2022/09/02 11:04:50;;;;;;;2.60;2.40;;;;;;;;;;5062812;28;20262;-73
2022/09/02 11:07:18;;;;;;;2.73;2.30;;;;;;;;;;5047344;28;20200;-73
2022/09/02 11:09:47;;;;;;;2.13;1.97;;;;;;;;;;5062822;28;20254;-73
2022/09/02 11:12:20;;;;;;;2.27;2.07;;;;;;;;;;5219841;22;20243;-74
2022/09/02 11:14:48;;;;;;;2.57;2.37;;;;;;;;;;5026103;28;20177;-73
2022/09/02 11:17:19;;;;;;;1.97;1.87;;;;;;;;;;5027117;28;20199;-73
2022/09/02 11:19:45;;;;;;;2.33;2.13;;;;;;;;;;5025783;28;20186;-73
2022/09/02 11:22:25;;;;;;;4.43;2.43;;;;;;;;;;5035244;28;20183;-73
2022/09/02 11:25:01;;;;;;;2.40;2.23;;;;;;;;;;5045695;28;20185;-74
2022/09/02 11:27:45;;;;;;;2.07;1.90;;;;;;;;;;5029285;28;20176;-73
2022/09/02 11:30:12;;;;;;;2.40;2.20;;;;;;;;;;5024368;28;20202;-73
2022/09/02 11:32:53;;;;;;;2.83;1.77;;;;;;;;;;5024294;28;20181;-73
2022/09/02 11:35:25;;;;;;;1.90;1.80;;;;;;;;;;5015149;28;20199;-73
2022/09/02 11:37:52;;;;;;;2.17;1.93;;;;;;;;;;5005812;28;20245;-73
2022/09/02 11:40:25;;;;;;;2.00;1.90;;;;;;;;;;5005324;28;20179;-74
2022/09/02 11:42:53;;;;;;;2.40;2.20;;;;;;;;;;4994046;28;20272;-73
2022/09/02 11:45:26;;;;;;;2.10;1.90;;;;;;;;;;4989567;28;20197;-73
2022/09/02 11:47:55;;;;;;;2.13;1.90;;;;;;;;;;4973024;28;20271;-74
2022/09/02 11:50:20;;;;;;;2.10;1.90;;;;;;;;;;4986410;28;20207;-73
2022/09/02 11:52:56;;;;;;;1.70;1.60;;;;;;;;;;4993728;28;20177;-73
2022/09/02 11:55:24;;;;;;;1.87;1.77;;;;;;;;;;4992953;28;20173;-73
2022/09/02 11:57:53;;;;;;;4.77;1.93;;;;;;;;;;4992181;28;20171;-73
2022/09/02 12:00:35;;;;;;;4.40;1.70;;;;;;;;;;4992565;28;20177;-73
2022/09/02 12:03:03;;;;;;;2.10;1.90;;;;;;;;;;4982530;28;20194;-73
2022/09/02 12:05:28;;;;;;;6.27;2.20;;;;;;;;;;4975210;28;20188;-74
2022/09/02 12:07:58;;;;;;;3.53;1.67;;;;;;;;;;4992121;28;20176;-74
2022/09/02 12:10:42;;;;;;;2.87;1.97;;;;;;;;;;4992428;28;20210;-74
2022/09/02 12:13:08;;;;;;;1.97;1.73;;;;;;;;;;4992103;28;20232;-74
2022/09/02 12:15:34;;;;;;;4.13;2.20;;;;;;;;;;4993401;28;20177;-74
2022/09/02 12:18:09;;;;;;;2.90;1.90;;;;;;;;;;4993616;28;20164;-74
2022/09/02 12:20:37;;;;;;;2.10;1.90;;;;;;;;;;4992452;28;20501;-73
2022/09/02 12:23:03;;;;;;;3.47;2.10;;;;;;;;;;5007852;28;20232;-74
2022/09/02 12:25:28;;;;;;;2.47;2.00;;;;;;;;;;5010696;28;20178;-74
2022/09/02 12:28:13;;;;;;;3.40;1.60;;;;;;;;;;4995018;28;20274;-74
2022/09/02 12:31:08;;;;;;;3.43;1.83;;;;;;;;;;4972484;28;20203;-74
2022/09/02 12:33:34;;;;;;;1.50;1.40;;;;;;;;;;4985511;28;20204;-74
2022/09/02 12:36:00;;;;;;;3.00;1.60;;;;;;;;;;4999640;28;20175;-74
2022/09/02 12:38:29;;;;;;;1.70;1.60;;;;;;;;;;4977832;28;20186;-74
2022/09/02 12:40:55;;;;;;;2.43;1.60;;;;;;;;;;5010319;28;20264;-74
2022/09/02 12:43:25;;;;;;;1.97;1.50;;;;;;;;;;5003901;28;20263;-74
2022/09/02 12:45:53;;;;;;;1.93;1.80;;;;;;;;;;5012090;28;20185;-74
2022/09/02 12:48:18;;;;;;;1.97;1.87;;;;;;;;;;5011185;28;20166;-74
2022/09/02 12:50:57;;;;;;;1.80;1.70;;;;;;;;;;5012465;28;20205;-74
2022/09/02 12:53:22;;;;;;;2.77;1.90;;;;;;;;;;5001415;28;20175;-74
2022/09/02 12:56:03;;;;;;;2.40;1.70;;;;;;;;;;4972216;28;20631;-74
2022/09/02 12:58:31;;;;;;;1.80;1.60;;;;;;;;;;4971514;28;20288;-74
2022/09/02 13:01:08;;;;;;;3.17;2.07;;;;;;;;;;4973138;28;20184;-74
2022/09/02 13:03:42;;;;;;;4.37;1.90;;;;;;;;;;4973071;28;20227;-74
2022/09/02 13:06:08;;;;;;;2.47;1.83;;;;;;;;;;4972503;28;20180;-74
2022/09/02 13:08:39;;;;;;;5.28;2.10;;;;;;;;;;4971985;28;20191;-74
2022/09/02 13:11:19;;;;;;;1.83;1.70;;;;;;;;;;4982599;28;20247;-74
2022/09/02 13:14:03;;;;;;;2.00;1.90;;;;;;;;;;5011647;28;20234;-74
2022/09/02 13:16:31;;;;;;;3.30;1.73;;;;;;;;;;5011647;28;20214;-74
2022/09/02 13:19:15;;;;;;;3.00;1.80;;;;;;;;;;4996967;28;20175;-74
2022/09/02 13:21:52;;;;;;;1.50;1.40;;;;;;;;;;5013746;28;20419;-74
2022/09/02 13:24:17;;;;;;;1.90;1.80;;;;;;;;;;5013939;28;20205;-74
2022/09/02 13:27:01;;;;;;;1.93;1.70;;;;;;;;;;5002888;28;20199;-74
2022/09/02 13:29:30;;;;;;;2.47;1.90;;;;;;;;;;4996764;28;20171;-74
2022/09/02 13:32:10;;;;;;;1.92;1.70;;;;;;;;;;5015640;28;20257;-74
2022/09/02 13:34:43;;;;;;;3.00;1.70;;;;;;;;;;5002006;28;20290;-74
2022/09/02 13:37:27;;;;;;;2.33;2.00;;;;;;;;;;5011286;28;20186;-74
2022/09/02 13:39:52;;;;;;;1.70;1.60;;;;;;;;;;4994069;28;20179;-74
2022/09/02 13:42:20;;;;;;;3.60;1.70;;;;;;;;;;5011336;28;20273;-74
2022/09/02 13:44:45;;;;;;;3.97;1.80;;;;;;;;;;4997446;28;20254;-74
2022/09/02 13:47:19;;;;;;;2.25;1.90;;;;;;;;;;4974475;28;20179;-74
2022/09/02 13:49:49;;;;;;;2.40;2.20;;;;;;;;;;4991526;28;20241;-74
2022/09/02 13:52:17;;;;;;;2.20;1.87;;;;;;;;;;4981039;28;20211;-74
2022/09/02 13:54:44;;;;;;;1.90;1.80;;;;;;;;;;5001191;28;20273;-74
2022/09/02 13:57:10;;;;;;;4.20;2.20;;;;;;;;;;5011123;28;20176;-74
2022/09/02 13:59:36;;;;;;;2.28;1.98;;;;;;;;;;4994000;28;20178;-75
2022/09/02 14:02:20;;;;;;;3.03;1.95;;;;;;;;;;4983525;28;20172;-74
2022/09/02 14:04:45;;;;;;;2.85;1.90;;;;;;;;;;4974080;28;20164;-74
2022/09/02 14:07:11;;;;;;;1.92;1.65;;;;;;;;;;4991039;28;20181;-74
2022/09/02 14:09:38;;;;;;;1.97;1.77;;;;;;;;;;4974248;28;20176;-74
2022/09/02 14:12:04;;;;;;;2.78;2.00;;;;;;;;;;4991228;28;20228;-74
2022/09/02 14:14:30;;;;;;;2.30;2.10;;;;;;;;;;4991110;28;20172;-74
2022/09/02 14:17:14;;;;;;;3.67;2.20;;;;;;;;;;4991364;28;20382;-74
2022/09/02 14:19:39;;;;;;;1.75;1.63;;;;;;;;;;4990739;28;20174;-74
2022/09/02 14:22:04;;;;;;;1.70;1.60;;;;;;;;;;5003912;28;20183;-74
2022/09/02 14:24:36;;;;;;;2.65;2.00;;;;;;;;;;5010929;28;20176;-74
2022/09/02 14:27:02;;;;;;;1.70;1.60;;;;;;;;;;5000512;28;20233;-74
2022/09/02 14:29:30;;;;;;;3.67;2.20;;;;;;;;;;4993104;28;20233;-74
2022/09/02 14:32:04;;;;;;;1.83;1.67;;;;;;;;;;5012578;28;20210;-74
2022/09/02 14:34:37;;;;;;;3.33;2.15;;;;;;;;;;5003263;28;20203;-74
2022/09/02 14:37:21;;;;;;;2.20;2.00;;;;;;;;;;5006676;28;20262;-74
2022/09/02 14:40:02;;;;;;;1.60;1.50;;;;;;;;;;5030151;28;20227;-74
2022/09/02 14:42:27;;;;;;;2.65;1.88;;;;;;;;;;5026409;28;20175;-74
2022/09/02 14:44:53;;;;;;;2.53;2.13;;;;;;;;;;4989480;28;20180;-74
2022/09/02 14:47:19;;;;;;;1.98;1.70;;;;;;;;;;4991134;28;20226;-74
2022/09/02 14:49:46;;;;;;;4.32;2.28;;;;;;;;;;4973509;28;20176;-74
2022/09/02 14:52:23;;;;;;;2.00;1.80;;;;;;;;;;4974296;28;20203;-74
2022/09/02 14:54:50;;;;;;;1.75;1.65;;;;;;;;;;4973494;28;20274;-74
2022/09/02 14:57:18;;;;;;;3.00;1.92;;;;;;;;;;4973540;28;20205;-74